createdAt,value
2019-06-08T00:04:29.488Z,99044.92
2019-06-08T00:10:34.096Z,99151.67
2019-06-08T00:16:38.650Z,99187.97
2019-06-08T00:22:43.259Z,99175.52
2019-06-08T00:28:47.846Z,99130.31
2019-06-08T00:34:52.394Z,99134.77
2019-06-08T00:40:56.992Z,99124.50
2019-06-08T00:47:01.533Z,99151.12
2019-06-08T00:53:06.079Z,99171.63
2019-06-08T00:59:10.621Z,99171.35
2019-06-08T01:05:15.687Z,99200.39
2019-06-08T01:11:22.547Z,99187.27
2019-06-08T01:17:27.573Z,99192.50
2019-06-08T01:23:32.248Z,99197.17
2019-06-08T01:29:36.795Z,99196.05
2019-06-08T01:35:41.348Z,99203.97
2019-06-08T01:41:45.899Z,99191.84
2019-06-08T01:47:50.447Z,99176.65
2019-06-08T01:53:55.008Z,99167.39
2019-06-08T01:59:59.565Z,99153.58
2019-06-08T02:06:04.342Z,99157.38
2019-06-08T02:12:08.908Z,99156.58
2019-06-08T02:18:13.470Z,99165.49
2019-06-08T02:24:18.018Z,99172.02
2019-06-08T02:30:23.301Z,99160.70
2019-06-08T02:36:28.789Z,99160.78
2019-06-08T02:42:35.331Z,99162.20
2019-06-08T02:49:01.811Z,99167.77
2019-06-08T02:54:47.592Z,99178.08
2019-06-08T03:00:54.853Z,99171.48
2019-06-08T03:07:01.595Z,99190.78
2019-06-08T03:13:06.718Z,99188.66
2019-06-08T03:19:21.737Z,99201.31
2019-06-08T03:25:17.549Z,99215.94
2019-06-08T03:31:22.134Z,99232.74
2019-06-08T03:37:26.828Z,99227.47
2019-06-08T03:43:31.436Z,99224.12
2019-06-08T03:49:44.842Z,99226.78
2019-06-08T03:55:44.947Z,99241.95
2019-06-08T04:01:50.713Z,99239.58
2019-06-08T04:07:55.338Z,99250.55
2019-06-08T04:13:59.875Z,99280.72
2019-06-08T04:20:11.257Z,99277.30
2019-06-08T04:26:12.404Z,99245.09
2019-06-08T04:32:16.948Z,99241.98
2019-06-08T04:38:21.510Z,99259.92
2019-06-08T04:44:26.066Z,99293.63
2019-06-08T04:50:30.629Z,99286.00
2019-06-08T04:56:36.716Z,99295.09
2019-06-08T05:02:44.680Z,99293.80
2019-06-08T05:08:49.602Z,99284.16
2019-06-08T05:14:54.433Z,99297.33
2019-06-08T05:20:58.969Z,99319.14
2019-06-08T05:27:03.585Z,99304.84
2019-06-08T05:33:08.135Z,99307.11
2019-06-08T05:39:12.668Z,99326.44
2019-06-08T05:45:17.464Z,99333.66
2019-06-08T05:51:22.015Z,99326.70
2019-06-08T05:57:26.705Z,99322.72
2019-06-08T06:03:31.395Z,99328.45
2019-06-08T06:09:36.154Z,99342.59
2019-06-08T06:15:40.954Z,99339.97
2019-06-08T06:21:45.629Z,99364.50
2019-06-08T06:27:50.180Z,99369.06
2019-06-08T06:33:54.891Z,99383.48
2019-06-08T06:39:59.526Z,99390.29
2019-06-08T06:46:04.146Z,99392.82
2019-06-08T06:52:08.768Z,99393.23
2019-06-08T06:58:13.342Z,99403.17
2019-06-08T07:04:18.251Z,99399.41
2019-06-08T07:10:22.823Z,99409.01
2019-06-08T07:16:27.364Z,99435.87
2019-06-08T07:22:31.933Z,99419.08
2019-06-08T07:28:36.477Z,99420.91
2019-06-08T07:34:41.292Z,99439.73
2019-06-08T07:40:47.235Z,99438.44
2019-06-08T07:46:53.650Z,99462.08
2019-06-08T07:52:58.876Z,99466.04
2019-06-08T07:59:03.595Z,99490.25
2019-06-08T08:05:08.510Z,99489.75
2019-06-08T08:11:13.137Z,99489.75
2019-06-08T08:17:17.721Z,99495.86
2019-06-08T08:23:22.344Z,99497.55
2019-06-08T08:29:28.187Z,99514.34
2019-06-08T08:35:33.365Z,99511.70
2019-06-08T08:41:38.960Z,99516.31
2019-06-08T08:47:43.811Z,99542.15
2019-06-08T08:53:55.868Z,99545.75
2019-06-08T09:00:02.806Z,99530.70
2019-06-08T09:06:05.534Z,99535.40
2019-06-08T09:12:10.091Z,99537.90
2019-06-08T09:18:15.631Z,99552.97
2019-06-08T09:24:20.339Z,99552.33
2019-06-08T09:30:27.394Z,99575.02
2019-06-08T09:36:31.357Z,99574.54
2019-06-08T09:42:36.028Z,99557.99
2019-06-08T09:48:40.676Z,99579.83
2019-06-08T09:54:47.999Z,99552.66
2019-06-08T10:00:51.694Z,99577.05
2019-06-08T10:07:00.165Z,99581.27
2019-06-08T10:13:09.356Z,99579.36
2019-06-08T10:19:13.725Z,99590.00
2019-06-08T10:25:18.402Z,99608.22
2019-06-08T10:31:35.646Z,99626.05
2019-06-08T10:37:29.467Z,99629.60
2019-06-08T10:43:34.147Z,99617.33
2019-06-08T10:49:38.743Z,99629.56
2019-06-08T10:55:48.184Z,99634.13
2019-06-08T11:01:53.816Z,99628.12
2019-06-08T11:08:00.351Z,99644.40
2019-06-08T11:14:07.363Z,99649.76
2019-06-08T11:20:13.708Z,99652.89
2019-06-08T11:26:23.830Z,99655.56
2019-06-08T11:32:24.783Z,99641.64
2019-06-08T11:38:29.465Z,99665.66
2019-06-08T11:44:35.891Z,99670.59
2019-06-08T11:50:42.471Z,99666.34
2019-06-08T11:56:48.224Z,99677.70
2019-06-08T12:02:53.005Z,99681.22
2019-06-08T12:09:00.121Z,99691.66
2019-06-08T12:15:10.063Z,99700.80
2019-06-08T12:21:14.610Z,99704.55
2019-06-08T12:27:29.904Z,99718.09
2019-06-08T12:33:30.537Z,99717.66
2019-06-08T12:39:33.790Z,99723.59
2019-06-08T12:45:38.564Z,99735.84
2019-06-08T12:51:43.253Z,99729.92
2019-06-08T12:57:48.429Z,99736.25
2019-06-08T13:03:54.430Z,99749.97
2019-06-08T13:10:00.051Z,99760.80
2019-06-08T13:16:04.753Z,99761.88
2019-06-08T13:22:10.748Z,99762.30
2019-06-08T13:28:19.373Z,99768.43
2019-06-08T13:34:24.044Z,99760.22
2019-06-08T13:40:30.861Z,99763.83
2019-06-08T13:46:37.929Z,99766.30
2019-06-08T13:52:42.634Z,99763.42
2019-06-08T13:58:48.459Z,99744.70
2019-06-08T14:04:53.321Z,99751.91
2019-06-08T14:11:01.133Z,99757.20
2019-06-08T14:17:08.344Z,99769.16
2019-06-08T14:23:12.230Z,99758.84
2019-06-08T14:29:20.219Z,99760.23
2019-06-08T14:35:24.206Z,99759.73
2019-06-08T14:41:31.528Z,99760.73
2019-06-08T14:47:37.673Z,99748.87
2019-06-08T14:53:42.393Z,99736.16
2019-06-08T14:59:50.112Z,99760.81
2019-06-08T15:05:53.450Z,99761.00
2019-06-08T15:12:02.184Z,99759.78
2019-06-08T15:18:11.107Z,99764.14
2019-06-08T15:24:18.379Z,99764.66
2019-06-08T15:30:21.972Z,99752.01
2019-06-08T15:36:29.792Z,99763.80
2019-06-08T15:42:34.307Z,99766.59
2019-06-08T15:48:38.933Z,99772.31
2019-06-08T15:54:43.499Z,99783.98
2019-06-08T16:00:48.184Z,99790.91
2019-06-08T16:06:52.869Z,99776.97
2019-06-08T16:12:57.461Z,99789.53
2019-06-08T16:19:02.084Z,99786.61
2019-06-08T16:25:08.513Z,99780.45
2019-06-08T16:31:13.983Z,99782.98
2019-06-08T16:37:18.584Z,99783.20
2019-06-08T16:43:26.879Z,99784.98
2019-06-08T16:49:31.275Z,99789.77
2019-06-08T16:55:36.142Z,99787.86
2019-06-08T17:01:40.849Z,99786.82
2019-06-08T17:07:45.499Z,99795.63
2019-06-08T17:13:50.053Z,99798.81
2019-06-08T17:19:54.745Z,99792.27
2019-06-08T17:26:03.328Z,99793.07
2019-06-08T17:32:07.969Z,99802.30
2019-06-08T17:38:15.599Z,99796.63
2019-06-08T17:44:22.724Z,99795.22
2019-06-08T17:50:32.688Z,99795.75
2019-06-08T17:56:37.155Z,99805.21
2019-06-08T18:02:43.665Z,99811.16
2019-06-08T18:08:49.844Z,99814.16
2019-06-08T18:14:54.494Z,99828.63
2019-06-08T18:20:59.096Z,99827.06
2019-06-08T18:27:03.802Z,99837.16
2019-06-08T18:33:08.473Z,99837.18
2019-06-08T18:39:13.036Z,99845.85
2019-06-08T18:45:20.114Z,99837.02
2019-06-08T18:51:28.074Z,99847.69
2019-06-08T18:57:32.767Z,99852.66
2019-06-08T19:03:42.284Z,99862.17
2019-06-08T19:09:48.071Z,99868.39
2019-06-08T19:15:54.834Z,99872.56
2019-06-08T19:21:59.458Z,99877.77
2019-06-08T19:28:04.216Z,99888.67
2019-06-08T19:34:08.802Z,99886.42
2019-06-08T19:40:13.433Z,99889.19
2019-06-08T19:46:18.519Z,99913.95
2019-06-08T19:52:26.125Z,99919.70
2019-06-08T19:58:30.793Z,99932.05
2019-06-08T20:04:35.755Z,99933.20
2019-06-08T20:10:41.673Z,99944.74
2019-06-08T20:16:49.297Z,99953.35
2019-06-08T20:22:53.619Z,99949.46
2019-06-08T20:29:12.182Z,99960.43
2019-06-08T20:35:08.797Z,99954.02
2019-06-08T20:41:13.420Z,99950.84
2019-06-08T20:47:20.907Z,99955.19
2019-06-08T20:53:28.125Z,99959.08
2019-06-08T20:59:34.313Z,99961.65
2019-06-08T21:05:38.264Z,99972.11
2019-06-08T21:11:49.366Z,99971.65
2019-06-08T21:17:53.814Z,99973.25
2019-06-08T21:24:01.014Z,99974.29
2019-06-08T21:30:18.984Z,99972.52
2019-06-08T21:36:13.052Z,99972.52
2019-06-08T21:42:20.129Z,99984.06
2019-06-08T21:48:28.213Z,99988.21
2019-06-08T21:54:32.785Z,99991.52
2019-06-08T22:00:42.749Z,99994.42
2019-06-08T22:06:43.926Z,99998.84
2019-06-08T22:12:48.702Z,99998.75
2019-06-08T22:18:54.807Z,100003.89
2019-06-08T22:25:01.064Z,100014.63
2019-06-08T22:31:07.921Z,100013.39
2019-06-08T22:37:12.123Z,100018.50
2019-06-08T22:43:18.976Z,100019.23
2019-06-08T22:49:23.059Z,100020.89
2019-06-08T22:55:27.869Z,100021.26
2019-06-08T23:01:32.444Z,100023.70
2019-06-08T23:07:38.631Z,100022.37
2019-06-08T23:13:43.191Z,100024.68
2019-06-08T23:19:48.155Z,100025.22
2019-06-08T23:25:52.934Z,100039.51
2019-06-08T23:32:01.081Z,100041.55
2019-06-08T23:38:07.698Z,100040.77
2019-06-08T23:44:11.870Z,100045.41
2019-06-08T23:50:17.842Z,100050.14
2019-06-08T23:56:22.566Z,100043.53
